Time;durP1;ratioP1;P1;durP2;ratioP2;P2;SDS_P1;SDS_P2;PMS_P1;PMS_P2;Temp;Humidity;BMP_temperature;BMP_pressure;BME280_temperature;BME280_humidity;BME280_pressure;Samples;Min_cycle;Max_cycle;Signal;HPM_P1;HPM_P2
2022/07/07 00:00:30;;;;;;;1.80;1.23;;;20.10;57.10;;;-142.21;78.62;112049.66;5112991;28;20318;-78
2022/07/07 00:02:57;;;;;;;2.57;1.40;;;20.10;57.20;;;-142.21;78.84;112049.66;5114814;28;20239;-79
2022/07/07 00:05:24;;;;;;;1.63;1.53;;;20.10;57.80;;;-142.21;79.40;112049.66;5114157;28;20211;-79
2022/07/07 00:07:51;;;;;;;1.60;1.50;;;20.10;57.90;;;-142.21;80.26;112049.66;5114655;28;20203;-79
2022/07/07 00:10:20;;;;;;;2.37;1.40;;;20.10;57.60;;;-142.21;80.21;112049.66;5113444;28;20228;-79
2022/07/07 00:12:48;;;;;;;2.97;1.70;;;20.10;57.60;;;-142.21;80.42;112049.66;5114651;28;20569;-78
2022/07/07 00:15:16;;;;;;;2.77;1.57;;;20.10;57.60;;;-142.21;80.42;112049.66;5113928;28;20207;-78
2022/07/07 00:17:43;;;;;;;1.50;1.40;;;20.10;57.70;;;-142.21;80.95;112049.66;5114866;28;20235;-79
2022/07/07 00:20:11;;;;;;;2.80;1.60;;;20.00;58.00;;;-142.21;81.99;112049.66;5095955;28;20700;-79
2022/07/07 00:22:38;;;;;;;4.57;2.03;;;19.90;58.50;;;-142.21;82.28;112049.66;5113580;28;20204;-79
2022/07/07 00:25:07;;;;;;;1.50;1.40;;;19.80;58.50;;;-142.21;81.74;112049.66;5113857;28;20676;-78
2022/07/07 00:27:35;;;;;;;2.97;1.87;;;19.80;58.40;;;-142.21;81.19;112049.66;5113874;28;20623;-78
2022/07/07 00:30:02;;;;;;;4.87;1.73;;;19.80;58.40;;;-142.21;80.39;112049.66;5091694;28;20200;-79
2022/07/07 00:32:29;;;;;;;2.87;2.00;;;19.80;58.00;;;-142.21;79.82;112049.66;5093004;28;20681;-79
2022/07/07 00:34:56;;;;;;;2.30;1.33;;;19.80;57.80;;;-142.21;78.79;112049.66;5093414;28;20224;-78
2022/07/07 00:37:23;;;;;;;1.53;1.40;;;19.90;57.60;;;-142.21;77.68;112049.66;5092923;28;20295;-78
2022/07/07 00:39:50;;;;;;;1.63;1.43;;;19.90;57.20;;;-142.21;77.00;112049.66;5092936;28;20696;-78
2022/07/07 00:42:18;;;;;;;1.50;1.30;;;20.00;57.10;;;-142.21;76.26;112049.66;5093099;28;20550;-80
2022/07/07 00:44:47;;;;;;;1.63;1.50;;;20.00;56.70;;;-142.21;75.25;112049.66;5093584;28;20255;-79
2022/07/07 00:47:15;;;;;;;1.97;1.33;;;20.00;56.50;;;-142.21;75.84;112049.66;5093310;28;20207;-79
2022/07/07 00:49:43;;;;;;;2.23;1.70;;;20.00;56.70;;;-142.21;75.67;112049.66;5093451;28;20200;-79
2022/07/07 00:52:12;;;;;;;2.03;1.50;;;20.00;56.60;;;-142.21;75.68;112049.66;5093434;28;20214;-78
2022/07/07 00:54:39;;;;;;;1.40;1.30;;;20.00;56.70;;;-142.21;75.16;112049.66;5092642;28;20211;-79
2022/07/07 00:57:07;;;;;;;3.33;1.60;;;20.00;56.50;;;-142.21;75.77;112049.66;5093054;28;20209;-78
2022/07/07 00:59:35;;;;;;;1.87;1.77;;;20.10;56.50;;;-142.21;75.06;112049.66;5092534;28;20610;-78
2022/07/07 01:02:04;;;;;;;2.77;1.90;;;20.10;56.40;;;-142.21;75.99;112049.66;5093269;28;20287;-78
2022/07/07 01:04:31;;;;;;;1.50;1.40;;;20.10;56.60;;;-142.21;75.92;112049.66;5108603;28;20208;-78
2022/07/07 01:06:59;;;;;;;3.63;1.57;;;20.10;56.60;;;-142.21;76.02;112049.66;5113415;28;20231;-78
2022/07/07 01:09:26;;;;;;;3.90;1.60;;;20.10;56.70;;;-142.21;76.12;112049.66;5094352;28;20237;-78
2022/07/07 01:11:57;;;;;;;1.67;1.57;;;20.00;56.90;;;-142.21;76.82;112049.66;5113442;28;20227;-79
2022/07/07 01:14:25;;;;;;;1.77;1.67;;;20.00;57.00;;;-142.21;77.68;112049.66;5112419;28;20671;-79
2022/07/07 01:16:54;;;;;;;4.53;1.43;;;19.90;57.40;;;-142.21;78.28;112049.66;5113002;28;20290;-77
2022/07/07 01:19:24;;;;;;;2.27;1.70;;;19.80;57.50;;;-142.21;79.45;112049.66;5112546;28;20298;-76
2022/07/07 01:21:55;;;;;;;1.40;1.30;;;19.70;57.90;;;-142.21;80.29;112049.66;5113381;28;20298;-77
2022/07/07 01:24:27;;;;;;;1.70;1.60;;;19.80;58.20;;;-142.21;79.93;112049.66;5112314;28;20199;-78
2022/07/07 01:27:10;;;;;;;4.13;1.63;;;19.80;57.90;;;-142.21;80.04;112049.66;5111885;28;20210;-77
2022/07/07 01:29:42;;;;;;;2.50;1.67;;;19.80;57.80;;;-142.21;80.26;112049.66;5112392;28;20188;-77
2022/07/07 01:32:10;;;;;;;1.97;1.63;;;19.80;57.80;;;-142.21;79.72;112049.66;5113188;28;20214;-78
2022/07/07 01:34:41;;;;;;;1.80;1.60;;;19.80;57.70;;;-142.21;79.90;112049.66;5112265;28;20314;-78
2022/07/07 01:37:09;;;;;;;1.97;1.67;;;19.80;58.30;;;-142.21;80.10;112049.66;5113070;28;20591;-77
2022/07/07 01:39:39;;;;;;;3.70;1.87;;;19.80;57.70;;;-142.21;79.57;112049.66;5112176;28;20295;-78
2022/07/07 01:42:07;;;;;;;4.63;2.00;;;19.80;57.70;;;-142.21;77.33;112049.66;5113046;28;20286;-79
2022/07/07 01:44:36;;;;;;;2.67;1.80;;;19.80;57.00;;;-142.21;76.99;112049.66;5112097;28;20664;-79
2022/07/07 01:47:05;;;;;;;2.00;1.80;;;19.70;56.90;;;-142.21;77.57;112049.66;5113007;28;20203;-78
2022/07/07 01:49:33;;;;;;;2.37;1.70;;;19.70;57.00;;;-142.21;77.77;112049.66;5112438;28;20203;-78
2022/07/07 01:52:03;;;;;;;4.00;1.67;;;19.70;57.10;;;-142.21;78.27;112049.66;5111968;28;20196;-79
2022/07/07 01:54:31;;;;;;;2.23;1.67;;;19.70;57.20;;;-142.21;78.53;112049.66;5112028;28;20256;-79
2022/07/07 01:57:00;;;;;;;2.57;1.50;;;19.70;57.30;;;-142.21;79.31;112049.66;5112725;28;20539;-78
2022/07/07 01:59:29;;;;;;;2.43;1.90;;;19.70;57.50;;;-142.21;79.28;112049.66;5112494;28;20196;-78
2022/07/07 02:01:56;;;;;;;1.90;1.50;;;19.60;57.40;;;-142.21;78.48;112049.66;5112660;28;20230;-79
2022/07/07 02:04:23;;;;;;;2.03;1.40;;;19.70;57.30;;;-142.21;78.91;112049.66;5112279;28;20295;-78
2022/07/07 02:06:51;;;;;;;1.80;1.60;;;19.60;57.10;;;-142.21;78.46;112049.66;5094628;28;20198;-78
2022/07/07 02:09:18;;;;;;;4.50;1.53;;;19.60;57.20;;;-142.21;79.41;112049.66;5112335;28;20771;-78
2022/07/07 02:11:50;;;;;;;2.00;1.80;;;19.60;58.20;;;-142.21;79.76;112049.66;5112265;28;20200;-79
2022/07/07 02:14:18;;;;;;;1.57;1.47;;;19.40;57.80;;;-142.21;80.70;112049.66;5112839;28;20196;-78
2022/07/07 02:16:45;;;;;;;3.43;1.80;;;19.20;58.20;;;-142.21;82.14;112049.66;5111907;28;20299;-78
2022/07/07 02:19:13;;;;;;;1.80;1.63;;;19.10;58.40;;;-142.21;82.47;112049.66;5094411;28;20210;-80
2022/07/07 02:21:40;;;;;;;2.00;1.90;;;19.10;58.60;;;-142.21;82.64;112049.66;5112283;28;20228;-78
2022/07/07 02:24:07;;;;;;;1.83;1.70;;;19.10;58.70;;;-142.21;82.57;112049.66;5113763;28;20561;-79
2022/07/07 02:26:35;;;;;;;1.90;1.70;;;19.10;58.70;;;-142.21;81.42;112049.66;5116056;28;20290;-80
2022/07/07 02:29:02;;;;;;;2.87;1.90;;;18.90;58.40;;;-142.21;81.56;112049.66;5116407;28;20200;-79
2022/07/07 02:31:31;;;;;;;2.00;1.70;;;18.80;58.40;;;-142.21;82.23;112049.66;5115490;28;20732;-79
2022/07/07 02:33:58;;;;;;;1.80;1.70;;;18.80;58.70;;;-142.21;82.77;112049.66;5116483;28;20219;-80
2022/07/07 02:36:25;;;;;;;2.73;1.50;;;18.70;58.90;;;-142.21;82.98;112049.66;5116038;28;20291;-79
2022/07/07 02:38:53;;;;;;;2.77;2.00;;;18.60;58.90;;;-142.21;83.91;112049.66;5116638;28;20235;-79
2022/07/07 02:41:21;;;;;;;3.27;1.90;;;18.40;59.30;;;-142.21;84.79;112049.66;5116550;28;20227;-80
2022/07/07 02:43:49;;;;;;;2.40;1.80;;;18.30;59.90;;;-142.21;85.19;112049.66;5116409;28;20548;-80
2022/07/07 02:46:16;;;;;;;1.87;1.73;;;18.30;60.30;;;-142.21;85.35;112049.66;5116360;28;20536;-79
2022/07/07 02:48:45;;;;;;;2.57;1.80;;;18.20;60.10;;;-142.21;85.61;112049.66;5096925;28;20207;-79
2022/07/07 02:51:12;;;;;;;2.93;2.00;;;18.30;60.20;;;-142.21;85.23;112049.66;5116012;28;20660;-79
2022/07/07 02:53:39;;;;;;;1.93;1.73;;;18.30;60.20;;;-142.21;85.49;112049.66;5115392;28;20437;-79
2022/07/07 02:56:07;;;;;;;2.40;1.83;;;18.30;60.20;;;-142.21;85.60;112049.66;5080454;28;20441;-78
2022/07/07 02:58:34;;;;;;;2.17;1.87;;;18.30;60.20;;;-142.21;85.18;112049.66;5115132;28;20962;-79
2022/07/07 03:01:01;;;;;;;2.17;1.80;;;18.40;60.10;;;-142.21;84.94;112049.66;5115635;28;21008;-78
2022/07/07 03:03:28;;;;;;;2.40;1.83;;;18.50;60.00;;;-142.21;85.86;112049.66;5094876;28;20533;-80
2022/07/07 03:05:57;;;;;;;2.03;1.83;;;18.50;59.90;;;-142.21;85.12;112049.66;5095654;28;20208;-79
2022/07/07 03:08:24;;;;;;;1.80;1.70;;;18.60;59.90;;;-142.21;85.20;112049.66;5026381;28;20520;-79
2022/07/07 03:10:51;;;;;;;1.90;1.63;;;18.60;60.50;;;-142.21;84.53;112049.66;5095441;28;20474;-79
2022/07/07 03:13:19;;;;;;;2.97;2.33;;;18.60;59.70;;;-142.21;84.67;112049.66;5095008;28;20210;-78
2022/07/07 03:15:46;;;;;;;2.40;2.00;;;18.70;59.80;;;-142.21;84.56;112049.66;5094940;28;20560;-78
2022/07/07 03:18:13;;;;;;;4.03;1.93;;;18.70;59.80;;;-142.21;84.65;112049.66;5095191;28;20446;-80
2022/07/07 03:20:40;;;;;;;2.27;2.03;;;18.80;59.70;;;-142.21;84.04;112049.66;5094325;28;20225;-78
2022/07/07 03:23:09;;;;;;;2.10;1.87;;;18.70;59.50;;;-142.21;84.41;112049.66;5095137;28;20442;-78
2022/07/07 03:25:36;;;;;;;3.87;1.80;;;18.80;59.70;;;-142.21;84.56;112049.66;5094713;28;20295;-78
2022/07/07 03:28:04;;;;;;;2.70;1.73;;;18.80;59.70;;;-142.21;83.97;112049.66;5094992;28;20454;-80
2022/07/07 03:30:31;;;;;;;2.10;1.90;;;18.80;59.60;;;-142.21;83.22;112049.66;5094531;28;20296;-80
2022/07/07 03:32:58;;;;;;;2.10;1.90;;;18.80;59.30;;;-142.21;82.66;112049.66;5095089;28;20438;-80
2022/07/07 03:35:26;;;;;;;3.43;1.83;;;18.90;58.90;;;-142.21;81.96;112049.66;5092824;28;20553;-80
2022/07/07 03:37:53;;;;;;;2.10;1.90;;;18.80;58.70;;;-142.21;80.32;112049.66;5094836;28;20215;-79
2022/07/07 03:40:22;;;;;;;2.33;1.87;;;18.90;58.30;;;-142.21;79.54;112049.66;5095046;28;20447;-79
2022/07/07 03:42:49;;;;;;;3.23;2.00;;;18.80;58.00;;;-142.21;79.07;112049.66;5093854;28;20205;-79
2022/07/07 03:45:19;;;;;;;2.30;1.80;;;18.90;58.00;;;-142.21;78.79;112049.66;5094841;28;20243;-79
2022/07/07 03:47:46;;;;;;;3.13;2.10;;;19.00;57.80;;;-142.21;77.51;112049.66;5094192;28;20223;-79
2022/07/07 03:50:15;;;;;;;2.10;1.73;;;19.00;57.40;;;-142.21;77.15;112049.66;5094390;28;20247;-78
2022/07/07 03:52:42;;;;;;;2.00;1.80;;;19.00;57.40;;;-142.21;76.75;112049.66;5093981;28;20224;-79
2022/07/07 03:55:10;;;;;;;4.10;2.60;;;18.90;57.30;;;-142.21;76.57;112049.66;5094366;28;20660;-79
2022/07/07 03:57:39;;;;;;;2.83;1.90;;;18.90;57.30;;;-142.21;76.23;112049.66;5093601;28;20295;-80
2022/07/07 04:00:08;;;;;;;3.97;1.90;;;18.90;57.10;;;-142.21;75.35;112049.66;5087430;28;20210;-79
2022/07/07 04:02:36;;;;;;;2.10;1.80;;;19.00;56.90;;;-142.21;74.84;112049.66;5114376;28;20227;-79
2022/07/07 04:05:04;;;;;;;2.07;1.67;;;19.00;56.80;;;-142.21;74.19;112049.66;5114554;28;20961;-80
2022/07/07 04:07:33;;;;;;;2.23;1.80;;;19.00;56.70;;;-142.21;73.66;112049.66;5095668;28;20215;-78
2022/07/07 04:10:02;;;;;;;2.13;1.93;;;19.10;56.50;;;-142.21;73.63;112049.66;5114353;28;20235;-78
2022/07/07 04:12:29;;;;;;;1.97;1.60;;;19.10;56.40;;;-142.21;74.35;112049.66;5078499;28;20204;-78
2022/07/07 04:14:59;;;;;;;4.33;1.83;;;19.20;56.40;;;-142.21;73.39;112049.66;5114001;28;20632;-79
2022/07/07 04:17:26;;;;;;;2.97;1.80;;;19.30;56.20;;;-142.21;72.92;112049.66;5114786;28;20203;-78
2022/07/07 04:19:53;;;;;;;4.57;1.63;;;19.30;56.00;;;-142.21;72.11;112049.66;5096415;28;20302;-78
2022/07/07 04:22:22;;;;;;;2.50;1.77;;;19.30;55.80;;;-142.21;71.34;112049.66;5114058;28;20718;-78
2022/07/07 04:24:49;;;;;;;1.73;1.60;;;19.30;55.50;;;-142.21;71.71;112049.66;5113945;28;20207;-77
2022/07/07 04:27:17;;;;;;;1.77;1.67;;;19.40;55.70;;;-142.21;70.94;112049.66;5114239;28;20231;-77
2022/07/07 04:29:44;;;;;;;2.07;1.67;;;19.40;55.60;;;-142.21;70.37;112049.66;5113530;28;20287;-79
2022/07/07 04:32:13;;;;;;;2.53;1.53;;;19.50;55.40;;;-142.21;70.11;112049.66;5114078;28;20200;-79
2022/07/07 04:34:40;;;;;;;1.60;1.50;;;19.40;55.50;;;-142.21;70.12;112049.66;5113635;28;20226;-77
2022/07/07 04:37:07;;;;;;;1.93;1.83;;;19.40;55.40;;;-142.21;70.00;112049.66;5114099;28;20204;-78
2022/07/07 04:39:34;;;;;;;2.20;1.80;;;19.40;55.30;;;-142.21;69.54;112049.66;5113480;28;20303;-78
2022/07/07 04:42:01;;;;;;;5.80;2.00;;;19.40;55.20;;;-142.21;69.81;112049.66;5114135;28;20521;-78
2022/07/07 04:44:29;;;;;;;1.90;1.60;;;19.50;55.30;;;-142.21;69.32;112049.66;5113481;28;20214;-78
2022/07/07 04:46:56;;;;;;;5.83;2.20;;;19.50;55.00;;;-142.21;69.58;112049.66;5113621;28;20243;-76
2022/07/07 04:49:24;;;;;;;4.20;1.93;;;19.50;55.10;;;-142.21;69.06;112049.66;5113985;28;20207;-78
2022/07/07 04:51:51;;;;;;;2.70;1.63;;;19.60;55.20;;;-142.21;69.09;112049.66;5112899;28;20290;-78
2022/07/07 04:54:19;;;;;;;2.00;1.90;;;19.60;55.20;;;-142.21;68.64;112049.66;5113492;28;20702;-78
2022/07/07 04:56:46;;;;;;;2.17;1.60;;;19.70;55.10;;;-142.21;69.02;112049.66;5112756;28;20664;-78
2022/07/07 04:59:13;;;;;;;2.57;1.57;;;19.70;55.00;;;-142.21;70.02;112049.66;5113488;28;20562;-77
2022/07/07 05:01:40;;;;;;;2.30;2.00;;;19.70;55.30;;;-142.21;68.66;112049.66;5112922;28;20255;-78
2022/07/07 05:04:08;;;;;;;1.97;1.63;;;19.80;55.00;;;-142.21;69.27;112049.66;5113273;28;20637;-77
2022/07/07 05:06:36;;;;;;;2.37;1.73;;;19.80;55.00;;;-142.21;69.09;112049.66;5112448;28;20283;-75
2022/07/07 05:09:04;;;;;;;2.80;1.80;;;19.80;55.10;;;-142.21;69.74;112049.66;5113157;28;20649;-78
2022/07/07 05:11:31;;;;;;;2.40;1.87;;;19.80;55.30;;;-142.21;69.52;112049.66;5094944;28;20548;-78
2022/07/07 05:13:58;;;;;;;2.00;1.83;;;19.90;55.20;;;-142.21;68.83;112049.66;5113301;28;20235;-79
2022/07/07 05:16:25;;;;;;;3.40;1.80;;;20.00;54.90;;;-142.21;68.99;112049.66;5113255;28;20291;-79
2022/07/07 05:18:52;;;;;;;2.67;1.57;;;20.00;54.90;;;-142.21;69.14;112049.66;5112667;28;20299;-77
2022/07/07 05:21:19;;;;;;;2.27;1.77;;;20.10;54.90;;;-142.21;68.10;112049.66;5113131;28;20318;-78
2022/07/07 05:23:48;;;;;;;2.20;1.80;;;20.10;54.60;;;-142.21;67.56;112049.66;5077127;28;20286;-78
2022/07/07 05:26:15;;;;;;;1.67;1.50;;;20.20;54.50;;;-142.21;67.05;112049.66;5113414;28;20298;-77
2022/07/07 05:28:43;;;;;;;2.67;1.53;;;20.20;54.30;;;-142.21;66.73;112049.66;5112616;28;20572;-79
2022/07/07 05:31:10;;;;;;;3.77;1.90;;;20.20;54.10;;;-142.21;65.05;112049.66;5113552;28;20204;-77
2022/07/07 05:33:37;;;;;;;2.93;1.70;;;20.20;53.70;;;-142.21;64.65;112049.66;5112777;28;20247;-77
2022/07/07 05:36:05;;;;;;;1.90;1.70;;;20.20;53.60;;;-142.21;64.44;112049.66;5112857;28;20292;-77
2022/07/07 05:38:33;;;;;;;3.53;2.20;;;20.30;53.70;;;-142.21;63.65;112049.66;5111954;28;20203;-79
2022/07/07 05:41:02;;;;;;;1.93;1.57;;;20.30;53.60;;;-142.21;63.23;112049.66;5113098;28;20279;-77
2022/07/07 05:43:30;;;;;;;2.90;1.77;;;20.40;53.50;;;-142.21;63.09;112049.66;5113052;28;20199;-78
2022/07/07 05:45:57;;;;;;;3.13;1.80;;;20.30;53.60;;;-142.21;63.94;112049.66;5112714;28;20290;-79
2022/07/07 05:48:26;;;;;;;2.17;1.80;;;20.40;53.50;;;-142.21;63.31;112049.66;5112599;28;20250;-76
2022/07/07 05:50:53;;;;;;;2.60;1.60;;;20.40;53.30;;;-142.21;62.04;112049.66;5111885;28;20211;-76
2022/07/07 05:53:22;;;;;;;4.47;1.60;;;20.40;53.00;;;-142.21;62.43;112049.66;5112530;28;20199;-78
2022/07/07 05:55:50;;;;;;;3.63;1.80;;;20.40;53.20;;;-142.21;62.13;112049.66;5112794;28;20214;-81
2022/07/07 05:58:19;;;;;;;3.33;1.53;;;20.40;53.30;;;-142.21;62.36;112049.66;5112343;28;20210;-85
2022/07/07 06:00:47;;;;;;;2.20;2.00;;;20.40;53.30;;;-142.21;61.09;112049.66;5117615;28;20254;-83
2022/07/07 06:03:14;;;;;;;3.90;1.60;;;20.40;52.90;;;-142.21;62.02;112049.66;5117555;28;20231;-82
2022/07/07 06:05:41;;;;;;;4.50;1.90;;;20.40;53.00;;;-142.21;62.19;112049.66;5117450;28;20593;-84
2022/07/07 06:08:10;;;;;;;2.40;1.87;;;20.50;53.30;;;-142.21;61.99;112049.66;5118228;28;20306;-80
2022/07/07 06:10:38;;;;;;;3.57;2.47;;;20.60;53.10;;;-142.21;61.76;112049.66;5116480;28;20295;-78
2022/07/07 06:13:05;;;;;;;2.37;1.63;;;20.60;53.20;;;-142.21;62.11;112049.66;5112627;28;20253;-76
2022/07/07 06:15:35;;;;;;;2.97;2.20;;;20.70;53.20;;;-142.21;62.64;112049.66;5117263;28;20235;-81
2022/07/07 06:18:03;;;;;;;3.73;2.00;;;20.90;53.40;;;-142.21;60.71;112049.66;5117476;28;20574;-81
2022/07/07 06:20:31;;;;;;;1.80;1.70;;;20.90;52.70;;;-142.21;60.46;112049.66;5109258;28;20249;-80
2022/07/07 06:22:59;;;;;;;1.77;1.67;;;20.90;52.70;;;-142.21;59.86;112049.66;5116619;28;20224;-82
2022/07/07 06:25:27;;;;;;;2.53;1.70;;;21.00;52.70;;;-142.21;59.71;112049.66;5108005;28;20262;-83
2022/07/07 06:27:54;;;;;;;2.27;1.70;;;21.10;52.50;;;-142.21;60.31;112049.66;5111751;28;20286;-79
2022/07/07 06:30:25;;;;;;;2.87;1.93;;;21.10;52.60;;;-142.21;60.66;112049.66;5117190;28;20218;-81
2022/07/07 06:32:54;;;;;;;2.50;1.93;;;21.20;52.80;;;-142.21;61.37;112049.66;5112718;28;20204;-81
2022/07/07 06:35:21;;;;;;;3.00;1.97;;;21.20;52.80;;;-142.21;60.68;112049.66;5117012;28;20228;-82
2022/07/07 06:37:50;;;;;;;3.20;1.97;;;21.40;52.90;;;-142.21;59.78;112049.66;5116504;28;20232;-81
2022/07/07 06:40:17;;;;;;;3.67;2.07;;;21.40;52.70;;;-142.21;59.72;112049.66;5116997;28;20252;-84
2022/07/07 06:42:45;;;;;;;2.03;1.83;;;21.40;52.60;;;-142.21;59.53;112049.66;5116279;28;20224;-80
2022/07/07 06:45:12;;;;;;;3.47;1.87;;;21.40;53.10;;;-142.21;58.63;112049.66;5117479;28;20204;-81
2022/07/07 06:47:40;;;;;;;5.20;2.20;;;21.50;52.50;;;-142.21;58.95;112049.66;5097720;28;20298;-82
2022/07/07 06:50:10;;;;;;;2.03;1.70;;;21.50;52.50;;;-142.21;58.30;112049.66;5117087;28;20204;-82
2022/07/07 06:52:37;;;;;;;4.27;1.87;;;21.50;52.40;;;-142.21;58.49;112049.66;5116440;28;20207;-83
2022/07/07 06:55:06;;;;;;;2.77;2.00;;;21.60;52.50;;;-142.21;58.08;112049.66;5116753;28;20245;-82
2022/07/07 06:57:33;;;;;;;4.40;1.60;;;21.70;52.20;;;-142.21;58.51;112049.66;5116944;28;20254;-86
2022/07/07 07:00:01;;;;;;;2.17;1.77;;;21.70;52.20;;;-142.21;58.63;112049.66;5117124;28;20203;-81
2022/07/07 07:02:28;;;;;;;3.90;2.57;;;21.70;52.00;;;-142.21;58.50;112049.66;5117238;28;20679;-82
2022/07/07 07:04:55;;;;;;;2.40;1.90;;;21.60;52.00;;;-142.21;59.27;112049.66;5116118;28;20231;-83
2022/07/07 07:07:24;;;;;;;4.33;1.97;;;21.50;52.30;;;-142.21;59.88;112049.66;5116283;28;20200;-82
2022/07/07 07:09:51;;;;;;;1.87;1.73;;;21.40;52.60;;;-142.21;59.91;112049.66;5115280;28;20230;-84
2022/07/07 07:12:18;;;;;;;2.00;1.80;;;21.40;52.60;;;-142.21;60.68;112049.66;5116768;28;20306;-81
2022/07/07 07:14:45;;;;;;;2.77;1.87;;;21.30;52.80;;;-142.21;60.19;112049.66;5116285;28;20364;-82
2022/07/07 07:17:13;;;;;;;3.43;1.90;;;21.30;52.80;;;-142.21;60.30;112049.66;5115739;28;20215;-82
2022/07/07 07:19:40;;;;;;;2.13;1.90;;;21.20;52.80;;;-142.21;60.67;112049.66;5115652;28;20288;-82
2022/07/07 07:22:08;;;;;;;3.40;2.10;;;21.20;52.90;;;-142.21;60.99;112049.66;5116225;28;20227;-84
2022/07/07 07:24:36;;;;;;;2.83;1.90;;;21.20;53.10;;;-142.21;60.88;112049.66;5116522;28;20211;-85
2022/07/07 07:27:04;;;;;;;2.60;1.97;;;21.20;53.10;;;-142.21;60.87;112049.66;5095825;28;20635;-84
2022/07/07 07:29:32;;;;;;;2.33;1.80;;;21.30;53.20;;;-142.21;60.41;112049.66;5095871;28;20208;-82
2022/07/07 07:31:59;;;;;;;2.57;2.07;;;21.30;53.20;;;-142.21;60.34;112049.66;5095452;28;20212;-81
2022/07/07 07:34:26;;;;;;;1.97;1.77;;;21.10;53.20;;;-142.21;61.16;112049.66;5095781;28;20228;-83
2022/07/07 07:36:54;;;;;;;4.87;1.70;;;21.10;53.60;;;-142.21;60.55;112049.66;5095329;28;20215;-83
2022/07/07 07:39:21;;;;;;;2.70;1.70;;;21.20;53.40;;;-142.21;60.66;112049.66;5095606;28;20649;-84
2022/07/07 07:41:50;;;;;;;2.27;1.73;;;21.30;53.40;;;-142.21;61.04;112049.66;5095538;28;20220;-82
2022/07/07 07:45:09;;;;;;;3.13;1.40;;;21.40;53.40;;;-142.21;60.81;112049.66;5096756;28;20277;-80
2022/07/07 07:47:06;;;;;;;2.90;2.23;;;21.40;53.30;;;-142.21;61.23;112049.66;5095462;28;20208;-83
2022/07/07 07:49:33;;;;;;;3.57;2.20;;;21.50;53.50;;;-142.21;61.28;112049.66;5095957;28;20212;-81
2022/07/07 07:52:01;;;;;;;3.63;2.03;;;21.60;53.40;;;-142.21;62.29;112049.66;5095163;28;20294;-83
2022/07/07 07:54:31;;;;;;;2.70;1.60;;;21.40;53.80;;;-142.21;62.90;112049.66;5096068;28;20649;-82
2022/07/07 07:56:59;;;;;;;2.20;1.80;;;21.40;54.10;;;-142.21;63.99;112049.66;5094849;28;20215;-82
2022/07/07 07:59:27;;;;;;;3.17;2.10;;;21.30;54.40;;;-142.21;64.92;112049.66;5097921;28;20200;-82
2022/07/07 08:01:54;;;;;;;2.40;2.20;;;21.20;54.70;;;-142.21;65.27;112049.66;5106441;28;20247;-80
2022/07/07 08:04:22;;;;;;;5.13;1.97;;;21.20;54.80;;;-142.21;65.96;112049.66;5110022;28;20200;-81
2022/07/07 08:06:49;;;;;;;3.00;2.37;;;21.30;54.90;;;-142.21;66.85;112049.66;5104578;28;20208;-82
2022/07/07 08:09:16;;;;;;;2.80;2.50;;;21.30;55.10;;;-142.21;66.88;112049.66;5102143;28;20315;-82
2022/07/07 08:11:43;;;;;;;2.00;1.80;;;21.30;55.10;;;-142.21;66.46;112049.66;5101010;28;20287;-84
2022/07/07 08:14:12;;;;;;;4.87;2.20;;;21.30;55.10;;;-142.21;66.66;112049.66;5104739;28;20232;-82
2022/07/07 08:16:39;;;;;;;3.33;2.30;;;21.30;55.10;;;-142.21;67.48;112049.66;5105214;28;20199;-83
2022/07/07 08:19:07;;;;;;;1.80;1.70;;;21.30;55.30;;;-142.21;67.68;112049.66;5103558;28;20238;-83
2022/07/07 08:21:34;;;;;;;2.30;1.93;;;21.40;55.30;;;-142.21;68.04;112049.66;5109083;28;20204;-83
2022/07/07 08:24:02;;;;;;;5.20;2.20;;;21.50;55.30;;;-142.21;67.76;112049.66;5101803;28;20724;-81
2022/07/07 08:26:29;;;;;;;2.83;2.23;;;21.50;55.20;;;-142.21;68.30;112049.66;5102375;28;20242;-82
2022/07/07 08:28:57;;;;;;;3.63;2.00;;;21.50;55.40;;;-142.21;67.99;112049.66;5104503;28;20257;-83
2022/07/07 08:31:25;;;;;;;3.63;2.20;;;21.60;55.30;;;-142.21;68.92;112049.66;5101596;28;20208;-82
2022/07/07 08:33:53;;;;;;;2.57;2.30;;;21.60;55.50;;;-142.21;68.83;112049.66;5106935;28;20315;-83
2022/07/07 08:36:20;;;;;;;2.73;2.10;;;21.60;55.30;;;-142.21;69.72;112049.66;5094653;28;20259;-82
2022/07/07 08:38:47;;;;;;;3.47;2.20;;;21.70;55.60;;;-142.21;70.17;112049.66;5109722;28;20204;-84
2022/07/07 08:41:15;;;;;;;2.10;1.90;;;21.80;55.80;;;-142.21;70.71;112049.66;5114935;28;20207;-81
2022/07/07 08:43:43;;;;;;;3.57;2.40;;;21.90;56.10;;;-142.21;70.66;112049.66;5114988;28;20231;-85
2022/07/07 08:46:11;;;;;;;5.27;2.90;;;22.00;55.90;;;-142.21;69.60;112049.66;5115089;28;20253;-83
2022/07/07 08:48:40;;;;;;;2.43;1.90;;;22.10;55.70;;;-142.21;68.78;112049.66;5115363;28;20207;-84
2022/07/07 08:51:09;;;;;;;4.13;2.73;;;22.30;55.50;;;-142.21;67.63;112049.66;5113800;28;20294;-82
2022/07/07 08:53:38;;;;;;;3.83;2.40;;;22.30;55.20;;;-142.21;67.35;112049.66;5115172;28;20200;-84
2022/07/07 08:56:08;;;;;;;3.40;2.20;;;22.40;55.30;;;-142.21;67.50;112049.66;5114194;28;20241;-83
2022/07/07 08:58:37;;;;;;;2.70;2.10;;;22.30;55.20;;;-142.21;67.44;112049.66;5114683;28;20208;-82
2022/07/07 09:01:05;;;;;;;3.57;2.30;;;22.50;55.20;;;-142.21;67.03;112049.66;5095866;28;20201;-83
2022/07/07 09:03:33;;;;;;;3.70;2.23;;;22.60;55.00;;;-142.21;65.24;112049.66;5094589;28;20217;-82
2022/07/07 09:06:02;;;;;;;6.07;2.70;;;22.70;54.40;;;-142.21;65.52;112049.66;5094007;28;20250;-84
2022/07/07 09:08:33;;;;;;;2.17;1.90;;;22.80;54.60;;;-142.21;65.70;112049.66;5106787;28;20295;-83
2022/07/07 09:11:01;;;;;;;3.63;2.37;;;22.70;54.60;;;-142.21;66.35;112049.66;5113757;28;20180;-83
2022/07/07 09:13:32;;;;;;;4.13;2.30;;;22.70;54.70;;;-142.21;67.33;112049.66;5114335;28;20196;-84
2022/07/07 09:16:02;;;;;;;2.50;2.30;;;22.80;54.90;;;-142.21;66.00;112049.66;5114463;28;20184;-84
2022/07/07 09:18:31;;;;;;;4.03;2.20;;;22.90;54.80;;;-142.21;66.10;112049.66;5114258;28;20291;-82
2022/07/07 09:21:02;;;;;;;4.03;2.30;;;23.00;55.00;;;-142.21;64.18;112049.66;5113986;28;20195;-82
2022/07/07 09:23:31;;;;;;;4.00;2.20;;;23.00;54.40;;;-142.21;64.86;112049.66;5114738;28;20227;-81
2022/07/07 09:25:58;;;;;;;2.30;2.10;;;23.00;54.50;;;-142.21;64.47;112049.66;5113407;28;20203;-82
2022/07/07 09:28:27;;;;;;;4.53;2.33;;;23.10;54.50;;;-142.21;65.05;112049.66;5114628;28;20200;-82
2022/07/07 09:30:55;;;;;;;3.67;2.23;;;23.10;54.50;;;-142.21;64.67;112049.66;5113670;28;20207;-84
2022/07/07 09:33:26;;;;;;;5.00;2.20;;;23.30;54.60;;;-142.21;65.92;112049.66;5113562;28;20232;-85
2022/07/07 09:38:44;;;;;;;3.33;3.03;;;23.50;54.40;;;-142.21;64.70;112049.66;5114271;28;20226;-84
2022/07/07 09:41:13;;;;;;;3.93;2.10;;;23.50;54.20;;;-142.21;64.77;112049.66;5114258;28;20274;-82
2022/07/07 09:43:48;;;;;;;3.63;1.90;;;23.50;54.20;;;-142.21;64.43;112049.66;5113717;28;20229;-81
2022/07/07 09:46:18;;;;;;;2.20;2.00;;;23.50;54.30;;;-142.21;65.27;112049.66;5113856;28;20195;-81
2022/07/07 09:48:49;;;;;;;2.93;2.30;;;23.60;54.50;;;-142.21;64.46;112049.66;5113320;28;20210;-83
2022/07/07 09:51:23;;;;;;;2.23;1.90;;;23.50;54.30;;;-142.21;64.77;112049.66;5113885;28;20238;-82
2022/07/07 09:54:12;;;;;;;3.50;2.07;;;23.60;54.60;;;-142.21;64.16;112049.66;5113394;28;20192;-84
2022/07/07 09:56:42;;;;;;;3.10;2.43;;;23.60;54.50;;;-142.21;64.53;112049.66;5113260;28;20587;-83
2022/07/07 09:59:12;;;;;;;2.37;2.10;;;23.70;54.50;;;-142.21;64.88;112049.66;5113582;28;20644;-82
2022/07/07 10:01:42;;;;;;;4.23;2.47;;;23.70;54.40;;;-142.21;66.07;112049.66;5113812;28;20211;-86
2022/07/07 10:04:13;;;;;;;3.37;2.20;;;23.60;54.80;;;-142.21;66.00;112049.66;5113517;28;20230;-83
2022/07/07 10:06:43;;;;;;;3.27;2.23;;;23.50;55.00;;;-142.21;67.34;112049.66;5114163;28;20290;-84